createdAt,value
2019-03-31T00:01:07.505Z,69.20
2019-03-31T00:02:01.305Z,75.20
2019-03-31T00:03:03.859Z,69.40
2019-03-31T00:04:05.691Z,70.60
2019-03-31T00:05:09.247Z,70.80
2019-03-31T00:06:11.456Z,72.40
2019-03-31T00:07:15.719Z,70.40
2019-03-31T00:08:17.946Z,70.20
2019-03-31T00:09:19.871Z,68.40
2019-03-31T00:10:21.987Z,68.00
2019-03-31T00:11:24.207Z,71.00
2019-03-31T00:12:26.170Z,70.60
2019-03-31T00:13:28.467Z,67.40
2019-03-31T00:14:30.597Z,66.80
2019-03-31T00:15:32.896Z,67.00
2019-03-31T00:16:37.024Z,69.60
2019-03-31T00:17:40.383Z,68.20
2019-03-31T00:18:42.314Z,69.00
2019-03-31T00:19:44.241Z,70.60
2019-03-31T00:20:47.057Z,70.40
2019-03-31T00:21:50.647Z,67.60
2019-03-31T00:22:52.666Z,70.60
2019-03-31T00:23:55.173Z,69.00
2019-03-31T00:24:56.859Z,72.40
2019-03-31T00:25:59.034Z,66.40
2019-03-31T00:27:01.371Z,70.60
2019-03-31T00:28:03.608Z,69.20
2019-03-31T00:29:06.276Z,73.80
2019-03-31T00:30:08.600Z,67.20
2019-03-31T00:31:21.450Z,69.60
2019-03-31T00:32:14.714Z,67.40
2019-03-31T00:33:16.631Z,70.40
2019-03-31T00:34:18.689Z,69.40
2019-03-31T00:35:21.087Z,67.20
2019-03-31T00:36:23.154Z,68.40
2019-03-31T00:37:25.360Z,68.40
2019-03-31T00:38:27.458Z,70.60
2019-03-31T00:39:29.356Z,66.40
2019-03-31T00:40:31.650Z,67.20
2019-03-31T00:41:34.061Z,68.80
2019-03-31T00:42:36.186Z,68.60
2019-03-31T00:43:38.373Z,64.20
2019-03-31T00:44:40.462Z,67.00
2019-03-31T00:45:42.532Z,66.40
2019-03-31T00:46:44.906Z,64.60
2019-03-31T00:47:47.288Z,62.80
2019-03-31T00:48:48.979Z,65.00
2019-03-31T00:49:51.090Z,64.00
2019-03-31T00:50:53.382Z,61.60
2019-03-31T00:51:55.519Z,58.20
2019-03-31T00:52:57.783Z,66.00
2019-03-31T00:53:59.797Z,61.00
2019-03-31T00:55:03.471Z,65.60
2019-03-31T00:56:05.605Z,60.80
2019-03-31T00:57:07.999Z,63.60
2019-03-31T00:58:10.180Z,64.00
2019-03-31T00:59:12.693Z,64.40
2019-03-31T01:00:35.961Z,60.40
2019-03-31T01:01:41.957Z,63.80
2019-03-31T01:02:44.505Z,63.20
2019-03-31T01:03:46.958Z,69.60
2019-03-31T01:04:49.471Z,70.00
2019-03-31T01:05:51.579Z,65.20
2019-03-31T01:06:53.742Z,64.60
2019-03-31T01:07:56.168Z,61.60
2019-03-31T01:09:00.298Z,66.00
2019-03-31T01:10:03.411Z,63.00
2019-03-31T01:11:13.464Z,64.00
2019-03-31T01:12:16.489Z,61.60
2019-03-31T01:13:18.935Z,65.40
2019-03-31T01:14:21.923Z,64.40
2019-03-31T01:15:25.898Z,61.20
2019-03-31T01:16:29.512Z,61.60
2019-03-31T01:17:31.996Z,63.80
2019-03-31T01:18:34.547Z,61.60
2019-03-31T01:19:36.868Z,61.20
2019-03-31T01:20:39.134Z,63.60
2019-03-31T01:21:40.935Z,59.60
2019-03-31T01:22:43.066Z,57.40
2019-03-31T01:23:45.862Z,62.40
2019-03-31T01:24:47.548Z,61.20
2019-03-31T01:25:49.999Z,60.60
2019-03-31T01:26:53.526Z,61.40
2019-03-31T01:27:55.636Z,61.60
2019-03-31T01:28:58.802Z,59.00
2019-03-31T01:30:00.926Z,58.80
2019-03-31T01:31:03.858Z,54.20
2019-03-31T01:32:06.128Z,52.60
2019-03-31T01:33:08.794Z,52.60
2019-03-31T01:34:13.022Z,55.20
2019-03-31T01:35:15.812Z,55.00
2019-03-31T01:36:18.164Z,48.00
2019-03-31T01:37:21.186Z,52.40
2019-03-31T01:38:23.536Z,51.80
2019-03-31T01:39:26.438Z,56.40
2019-03-31T01:40:28.480Z,54.60
2019-03-31T01:41:31.060Z,59.00
2019-03-31T01:42:33.249Z,55.40
2019-03-31T01:43:35.775Z,55.40
2019-03-31T01:44:38.181Z,53.20
2019-03-31T01:45:40.599Z,57.80
2019-03-31T01:46:43.013Z,56.80
2019-03-31T01:47:45.342Z,57.20
2019-03-31T01:48:47.403Z,58.00
2019-03-31T01:49:49.726Z,57.80
2019-03-31T01:50:51.953Z,55.20
2019-03-31T01:51:54.579Z,54.60
2019-03-31T01:52:56.705Z,56.20
2019-03-31T01:53:58.985Z,58.20
2019-03-31T01:55:01.027Z,54.50
2019-03-31T01:56:03.396Z,58.40
2019-03-31T01:57:06.833Z,59.60
2019-03-31T01:58:08.726Z,55.20
2019-03-31T01:59:10.899Z,58.60
2019-03-31T02:00:21.187Z,61.20
2019-03-31T02:01:23.381Z,58.00
2019-03-31T02:02:27.220Z,58.60
2019-03-31T02:03:29.366Z,58.00
2019-03-31T02:04:31.449Z,57.60
2019-03-31T02:05:33.969Z,58.75
2019-03-31T02:06:36.178Z,58.60
2019-03-31T02:07:38.416Z,59.60
2019-03-31T02:08:41.556Z,56.20
2019-03-31T02:09:44.873Z,59.20
2019-03-31T02:10:47.005Z,54.40
2019-03-31T02:11:49.037Z,55.20
2019-03-31T02:12:51.008Z,50.60
2019-03-31T02:13:53.228Z,54.40
2019-03-31T02:14:55.431Z,52.60
2019-03-31T02:15:57.809Z,54.80
2019-03-31T02:16:59.978Z,55.20
2019-03-31T02:18:02.262Z,53.20
2019-03-31T02:19:04.104Z,54.60
2019-03-31T02:20:08.018Z,56.80
2019-03-31T02:21:09.846Z,55.20
2019-03-31T02:22:11.676Z,54.00
2019-03-31T02:23:13.984Z,53.20
2019-03-31T02:24:17.255Z,51.20
2019-03-31T02:25:19.778Z,56.60
2019-03-31T02:26:21.931Z,53.60
2019-03-31T02:27:24.422Z,53.80
2019-03-31T02:28:26.172Z,56.00
2019-03-31T02:29:28.302Z,55.80
2019-03-31T02:30:30.574Z,52.80
2019-03-31T02:31:32.410Z,53.80
2019-03-31T02:32:34.653Z,55.00
2019-03-31T02:33:36.328Z,52.00
2019-03-31T02:34:38.287Z,54.60
2019-03-31T02:35:40.706Z,52.80
2019-03-31T02:36:42.378Z,54.00
2019-03-31T02:37:44.380Z,56.60
2019-03-31T02:38:46.814Z,53.60
2019-03-31T02:39:48.485Z,53.40
2019-03-31T02:40:50.791Z,51.60
2019-03-31T02:41:52.984Z,52.60
2019-03-31T02:42:54.823Z,53.00
2019-03-31T02:43:57.126Z,50.60
2019-03-31T02:44:59.361Z,53.40
2019-03-31T02:46:01.422Z,53.40
2019-03-31T02:47:03.791Z,53.80
2019-03-31T02:48:06.019Z,52.00
2019-03-31T02:49:08.092Z,54.00
2019-03-31T02:50:24.855Z,51.20
2019-03-31T02:51:27.119Z,54.00
2019-03-31T02:52:29.508Z,47.40
2019-03-31T02:53:31.759Z,53.00
2019-03-31T02:54:33.924Z,51.20
2019-03-31T02:55:37.123Z,49.20
2019-03-31T02:56:40.324Z,49.40
2019-03-31T02:57:42.507Z,50.80
2019-03-31T02:58:45.540Z,52.40
2019-03-31T02:59:49.440Z,52.00
2019-03-31T03:00:52.506Z,46.80
2019-03-31T03:01:56.820Z,50.20
2019-03-31T03:02:59.547Z,46.60
2019-03-31T03:04:02.356Z,46.00
2019-03-31T03:05:18.782Z,50.40
2019-03-31T03:06:10.939Z,50.60
2019-03-31T03:07:15.328Z,49.80
2019-03-31T03:08:17.893Z,48.00
2019-03-31T03:09:22.220Z,49.80
2019-03-31T03:10:26.234Z,50.60
2019-03-31T03:11:31.118Z,51.60
2019-03-31T03:12:34.476Z,49.00
2019-03-31T03:13:39.442Z,48.80
2019-03-31T03:14:42.338Z,51.20
2019-03-31T03:16:08.364Z,49.20
2019-03-31T03:17:10.346Z,48.80
2019-03-31T03:18:12.475Z,51.80
2019-03-31T03:19:14.933Z,47.20
2019-03-31T03:20:16.966Z,48.20
2019-03-31T03:21:23.426Z,49.20
2019-03-31T03:22:23.151Z,47.40
2019-03-31T03:23:25.289Z,47.40
2019-03-31T03:24:27.966Z,48.20
2019-03-31T03:25:29.634Z,50.40
2019-03-31T03:26:31.827Z,44.80
2019-03-31T03:27:33.603Z,48.00
2019-03-31T03:28:35.502Z,45.00
2019-03-31T03:29:37.979Z,51.60
2019-03-31T03:30:40.329Z,54.20
2019-03-31T03:31:42.536Z,46.20
2019-03-31T03:33:12.069Z,45.60
2019-03-31T03:33:48.744Z,46.80
2019-03-31T03:34:50.898Z,44.40
2019-03-31T03:35:53.158Z,46.40
2019-03-31T03:36:55.008Z,47.00
2019-03-31T03:37:59.504Z,43.20
2019-03-31T03:39:01.666Z,47.20
2019-03-31T03:40:06.141Z,50.20
2019-03-31T03:41:08.413Z,51.40
2019-03-31T03:42:10.641Z,49.00
2019-03-31T03:43:12.303Z,50.40
2019-03-31T03:44:14.489Z,49.40
2019-03-31T03:45:16.860Z,47.60
2019-03-31T03:46:18.547Z,48.60
2019-03-31T03:47:20.878Z,50.40
2019-03-31T03:48:22.686Z,50.00
2019-03-31T03:49:24.764Z,47.20
2019-03-31T03:50:26.842Z,47.20
2019-03-31T03:51:28.526Z,48.00
2019-03-31T03:52:30.701Z,46.60
2019-03-31T03:53:33.251Z,48.60
2019-03-31T03:54:35.682Z,48.00
2019-03-31T03:55:38.046Z,46.20
2019-03-31T03:56:40.005Z,47.80
2019-03-31T03:57:42.133Z,47.80
2019-03-31T03:58:44.747Z,46.40
2019-03-31T03:59:46.813Z,46.80
2019-03-31T04:00:49.107Z,50.00
2019-03-31T04:01:51.259Z,50.00
2019-03-31T04:02:54.905Z,48.60
2019-03-31T04:03:56.601Z,49.40
2019-03-31T04:04:58.760Z,47.20
2019-03-31T04:06:00.714Z,48.00
2019-03-31T04:07:02.965Z,44.60
2019-03-31T04:08:05.184Z,46.20
2019-03-31T04:09:07.460Z,50.20
2019-03-31T04:10:44.357Z,47.40
2019-03-31T04:11:46.601Z,48.80
2019-03-31T04:12:48.480Z,45.00
2019-03-31T04:13:50.977Z,48.80
2019-03-31T04:14:53.235Z,47.00
2019-03-31T04:15:56.182Z,49.00
2019-03-31T04:16:58.765Z,46.80
2019-03-31T04:18:00.913Z,49.00
2019-03-31T04:19:02.911Z,49.40
2019-03-31T04:20:05.306Z,49.40
2019-03-31T04:21:07.914Z,46.40
2019-03-31T04:22:09.623Z,47.00
2019-03-31T04:23:12.738Z,44.80
2019-03-31T04:24:15.016Z,47.00
2019-03-31T04:25:16.927Z,48.80
2019-03-31T04:26:19.037Z,47.20
2019-03-31T04:27:20.689Z,49.00
2019-03-31T04:28:22.446Z,49.00
2019-03-31T04:29:24.662Z,48.40
2019-03-31T04:30:27.116Z,47.80
2019-03-31T04:31:29.315Z,46.80
2019-03-31T04:32:31.636Z,46.60
2019-03-31T04:33:49.650Z,47.60
2019-03-31T04:34:37.645Z,46.40
2019-03-31T04:35:39.769Z,46.60
2019-03-31T04:36:41.972Z,42.60
2019-03-31T04:37:44.082Z,46.20
2019-03-31T04:38:46.288Z,47.20
2019-03-31T04:39:48.385Z,45.00
2019-03-31T04:40:52.535Z,46.20
2019-03-31T04:41:54.686Z,46.80
2019-03-31T04:42:56.723Z,48.40
2019-03-31T04:43:58.833Z,48.80
2019-03-31T04:45:00.993Z,45.80
2019-03-31T04:46:03.372Z,45.00
2019-03-31T04:47:05.402Z,46.00
2019-03-31T04:48:07.060Z,42.40
2019-03-31T04:49:09.242Z,46.40
2019-03-31T04:50:11.843Z,46.40
2019-03-31T04:51:14.454Z,47.40
2019-03-31T04:52:16.092Z,46.40
2019-03-31T04:53:18.656Z,47.80
2019-03-31T04:54:21.068Z,45.80
2019-03-31T04:55:23.255Z,46.60
2019-03-31T04:56:25.270Z,44.40
2019-03-31T04:57:27.415Z,45.20
2019-03-31T04:58:29.804Z,44.00
2019-03-31T04:59:32.034Z,46.40
2019-03-31T05:00:36.220Z,44.20
2019-03-31T05:01:38.300Z,42.00
2019-03-31T05:02:40.626Z,42.60
2019-03-31T05:03:42.644Z,46.20
2019-03-31T05:04:44.787Z,45.60
2019-03-31T05:05:48.127Z,46.00
2019-03-31T05:06:49.801Z,48.60
2019-03-31T05:07:52.042Z,47.00
2019-03-31T05:08:54.036Z,48.40
2019-03-31T05:09:55.742Z,48.80
2019-03-31T05:10:58.125Z,48.40
2019-03-31T05:12:00.113Z,49.20
2019-03-31T05:13:02.203Z,51.60
2019-03-31T05:14:04.527Z,50.60
2019-03-31T05:15:06.855Z,49.20
2019-03-31T05:16:08.695Z,51.60
2019-03-31T05:17:10.777Z,47.20
2019-03-31T05:18:13.200Z,48.40
2019-03-31T05:19:16.362Z,47.40
2019-03-31T05:20:18.517Z,47.80
2019-03-31T05:21:20.870Z,48.40
2019-03-31T05:22:22.852Z,52.00
2019-03-31T05:23:25.525Z,47.00
2019-03-31T05:24:27.310Z,49.60
2019-03-31T05:25:29.322Z,51.00
2019-03-31T05:26:31.441Z,51.40
2019-03-31T05:27:33.177Z,49.80
2019-03-31T05:28:35.030Z,51.80
2019-03-31T05:29:37.266Z,49.20
2019-03-31T05:30:39.409Z,48.40
2019-03-31T05:31:41.092Z,48.60
2019-03-31T05:32:44.187Z,47.00
2019-03-31T05:33:46.413Z,49.80
2019-03-31T05:34:48.703Z,49.40
2019-03-31T05:35:51.969Z,51.40
2019-03-31T05:36:54.061Z,49.60
2019-03-31T05:37:56.319Z,53.00
2019-03-31T05:38:58.345Z,51.00
2019-03-31T05:40:00.499Z,55.80
2019-03-31T05:41:02.848Z,54.40
2019-03-31T05:42:04.791Z,53.40
2019-03-31T05:43:06.616Z,53.20
2019-03-31T05:44:08.678Z,49.40
2019-03-31T05:45:10.948Z,51.40
2019-03-31T05:46:13.033Z,48.60
2019-03-31T05:47:15.024Z,50.00
2019-03-31T05:48:16.796Z,48.40
2019-03-31T05:49:18.774Z,47.20
2019-03-31T05:50:20.867Z,50.60
2019-03-31T05:51:22.908Z,53.20
2019-03-31T05:52:24.932Z,46.60
2019-03-31T05:53:26.890Z,46.80
2019-03-31T05:54:28.995Z,49.60
2019-03-31T05:55:31.260Z,49.40
2019-03-31T05:56:33.386Z,46.20
2019-03-31T05:57:35.371Z,48.60
2019-03-31T05:58:37.236Z,48.40
2019-03-31T05:59:39.262Z,47.00
2019-03-31T06:00:43.097Z,45.20
2019-03-31T06:01:45.450Z,46.20
2019-03-31T06:02:47.683Z,47.20
2019-03-31T06:03:49.390Z,46.00
2019-03-31T06:04:51.773Z,48.40
2019-03-31T06:05:54.029Z,43.00
2019-03-31T06:06:57.862Z,42.00
2019-03-31T06:08:01.406Z,38.00
2019-03-31T06:09:05.296Z,39.40
2019-03-31T06:10:07.335Z,41.80
2019-03-31T06:11:09.523Z,40.00
2019-03-31T06:12:11.732Z,41.40
2019-03-31T06:13:13.725Z,41.40
2019-03-31T06:14:15.868Z,41.40
2019-03-31T06:15:18.245Z,39.60
2019-03-31T06:16:20.124Z,44.60
2019-03-31T06:17:22.123Z,43.60
2019-03-31T06:18:23.948Z,51.40
2019-03-31T06:19:26.034Z,44.20
2019-03-31T06:20:28.356Z,46.60
2019-03-31T06:21:30.419Z,44.80
2019-03-31T06:22:32.567Z,45.60
2019-03-31T06:23:35.135Z,47.60
2019-03-31T06:24:37.091Z,48.60
2019-03-31T06:25:39.367Z,44.20
2019-03-31T06:26:42.714Z,39.00
2019-03-31T06:27:47.013Z,42.00
2019-03-31T06:28:49.180Z,41.20
2019-03-31T06:29:51.285Z,44.00
2019-03-31T06:30:53.051Z,42.00
2019-03-31T06:31:55.062Z,42.20
2019-03-31T06:32:57.357Z,44.00
2019-03-31T06:33:59.327Z,40.00
2019-03-31T06:35:01.709Z,42.40
2019-03-31T06:36:03.988Z,42.40
2019-03-31T06:37:06.348Z,42.60
2019-03-31T06:38:09.015Z,37.20
2019-03-31T06:39:10.742Z,37.60
2019-03-31T06:40:13.065Z,38.60
2019-03-31T06:41:15.246Z,38.20
2019-03-31T06:42:17.287Z,39.60
2019-03-31T06:43:18.956Z,37.80
2019-03-31T06:44:22.253Z,38.80
2019-03-31T06:45:24.411Z,37.60
2019-03-31T06:46:26.394Z,38.20
2019-03-31T06:47:28.452Z,40.20
2019-03-31T06:48:30.860Z,37.60
2019-03-31T06:49:33.206Z,36.60
2019-03-31T06:50:35.830Z,38.60
2019-03-31T06:51:38.068Z,39.00
2019-03-31T06:52:40.017Z,36.60
2019-03-31T06:53:41.995Z,41.60
2019-03-31T06:54:43.942Z,36.60
2019-03-31T06:55:45.947Z,37.80
2019-03-31T06:56:48.074Z,35.80
2019-03-31T06:57:51.118Z,37.80
2019-03-31T06:58:53.114Z,37.40
2019-03-31T06:59:55.208Z,37.20
2019-03-31T07:00:57.396Z,38.00
2019-03-31T07:02:02.848Z,37.20
2019-03-31T07:03:04.059Z,37.60
2019-03-31T07:04:07.686Z,37.60
2019-03-31T07:05:10.213Z,35.60
2019-03-31T07:06:12.764Z,38.00
2019-03-31T07:07:15.123Z,36.80
2019-03-31T07:08:17.514Z,36.00
2019-03-31T07:09:19.679Z,37.60
2019-03-31T07:10:22.116Z,35.80
2019-03-31T07:11:24.120Z,36.60
2019-03-31T07:12:26.323Z,38.00
2019-03-31T07:13:28.334Z,36.60
2019-03-31T07:14:30.363Z,37.40
2019-03-31T07:15:32.449Z,36.20
2019-03-31T07:16:34.675Z,37.00
2019-03-31T07:17:37.123Z,36.40
2019-03-31T07:18:39.251Z,36.60
2019-03-31T07:19:41.502Z,36.60
2019-03-31T07:20:43.504Z,37.00
2019-03-31T07:21:45.420Z,37.20
2019-03-31T07:22:47.753Z,35.40
2019-03-31T07:23:49.879Z,37.00
2019-03-31T07:24:51.717Z,38.00
2019-03-31T07:25:53.996Z,35.00
2019-03-31T07:26:56.154Z,37.40
2019-03-31T07:27:58.447Z,36.00
2019-03-31T07:29:00.483Z,35.80
2019-03-31T07:30:07.244Z,39.40
2019-03-31T07:31:09.100Z,35.60
2019-03-31T07:32:11.475Z,36.40
2019-03-31T07:33:13.546Z,37.00
2019-03-31T07:34:15.742Z,35.80
2019-03-31T07:35:19.128Z,34.00
2019-03-31T07:36:21.430Z,35.80
2019-03-31T07:37:23.532Z,37.00
2019-03-31T07:38:38.244Z,35.60
2019-03-31T07:39:29.657Z,34.60
2019-03-31T07:40:32.174Z,35.40
2019-03-31T07:41:35.456Z,36.60
2019-03-31T07:42:37.642Z,34.00
2019-03-31T07:43:39.916Z,35.00
2019-03-31T07:44:42.009Z,36.00
2019-03-31T07:45:43.845Z,36.60
2019-03-31T07:46:45.994Z,36.00
2019-03-31T07:47:49.116Z,35.00
2019-03-31T07:48:50.780Z,35.20
2019-03-31T07:49:52.892Z,36.00
2019-03-31T07:50:54.954Z,35.40
2019-03-31T07:51:56.702Z,33.80
2019-03-31T07:52:58.990Z,34.00
2019-03-31T07:54:01.110Z,33.00
2019-03-31T07:55:05.180Z,34.20
2019-03-31T07:56:07.224Z,33.80
2019-03-31T07:57:09.509Z,33.80
2019-03-31T07:58:11.276Z,35.00
2019-03-31T07:59:13.444Z,35.60
2019-03-31T08:00:21.157Z,35.60
2019-03-31T08:01:23.953Z,35.00
2019-03-31T08:02:26.094Z,35.20
2019-03-31T08:03:27.998Z,34.00
2019-03-31T08:04:29.807Z,33.00
2019-03-31T08:05:34.033Z,35.00
2019-03-31T08:06:36.289Z,32.80
2019-03-31T08:07:38.871Z,33.20
2019-03-31T08:08:41.017Z,33.00
2019-03-31T08:09:42.681Z,32.00
2019-03-31T08:10:45.043Z,33.00
2019-03-31T08:11:47.313Z,31.20
2019-03-31T08:12:51.194Z,32.00
2019-03-31T08:13:55.280Z,30.40
2019-03-31T08:14:57.175Z,29.20
2019-03-31T08:15:59.509Z,30.80
2019-03-31T08:17:01.593Z,29.20
2019-03-31T08:18:03.689Z,30.00
2019-03-31T08:19:05.531Z,28.00
2019-03-31T08:20:12.000Z,29.60
2019-03-31T08:21:15.316Z,27.20
2019-03-31T08:22:16.993Z,28.00
2019-03-31T08:23:19.357Z,28.80
2019-03-31T08:24:21.271Z,30.00
2019-03-31T08:25:23.570Z,28.60
2019-03-31T08:26:25.560Z,29.40
2019-03-31T08:27:27.641Z,28.80
2019-03-31T08:28:29.677Z,29.60
2019-03-31T08:29:31.887Z,27.80
2019-03-31T08:30:33.970Z,28.40
2019-03-31T08:31:36.140Z,28.00
2019-03-31T08:32:39.101Z,29.40
2019-03-31T08:33:41.093Z,28.00
2019-03-31T08:34:43.136Z,28.60
2019-03-31T08:35:47.615Z,27.00
2019-03-31T08:36:49.118Z,28.60
2019-03-31T08:37:51.253Z,28.60
2019-03-31T08:38:55.352Z,28.20
2019-03-31T08:39:57.053Z,27.80
2019-03-31T08:40:59.438Z,24.40
2019-03-31T08:42:01.656Z,27.00
2019-03-31T08:43:03.349Z,25.20
2019-03-31T08:44:05.800Z,24.80
2019-03-31T08:45:08.506Z,24.40
2019-03-31T08:46:10.858Z,27.60
2019-03-31T08:47:13.070Z,24.80
2019-03-31T08:48:14.746Z,25.20
2019-03-31T08:49:18.948Z,26.80
2019-03-31T08:50:21.191Z,24.00
2019-03-31T08:51:23.480Z,28.00
2019-03-31T08:52:25.590Z,26.20
2019-03-31T08:53:28.017Z,24.60
2019-03-31T08:54:29.850Z,24.00
2019-03-31T08:55:32.208Z,24.00
2019-03-31T08:56:34.221Z,23.80
2019-03-31T08:57:36.433Z,24.40
2019-03-31T08:58:38.908Z,24.00
2019-03-31T08:59:40.997Z,23.00
2019-03-31T09:00:49.626Z,21.00
2019-03-31T09:01:52.148Z,24.60
2019-03-31T09:02:54.172Z,24.20
2019-03-31T09:03:55.951Z,22.80
2019-03-31T09:04:58.283Z,22.20
2019-03-31T09:06:02.406Z,23.60
2019-03-31T09:07:04.925Z,21.20
2019-03-31T09:08:07.308Z,23.20
2019-03-31T09:09:09.769Z,23.40
2019-03-31T09:10:12.133Z,21.80
2019-03-31T09:11:14.228Z,21.80
2019-03-31T09:12:16.547Z,22.00
2019-03-31T09:13:18.420Z,20.20
2019-03-31T09:14:20.821Z,22.80
2019-03-31T09:15:22.683Z,23.00
2019-03-31T09:16:25.210Z,21.60
2019-03-31T09:17:27.421Z,21.00
2019-03-31T09:18:29.535Z,22.60
2019-03-31T09:19:31.736Z,21.00
2019-03-31T09:20:33.917Z,23.00
2019-03-31T09:21:35.743Z,21.00
2019-03-31T09:22:37.954Z,21.00
2019-03-31T09:23:40.073Z,22.60
2019-03-31T09:24:42.172Z,18.40
2019-03-31T09:25:47.519Z,23.40
2019-03-31T09:26:48.786Z,21.00
2019-03-31T09:27:52.544Z,21.40
2019-03-31T09:28:54.900Z,21.00
2019-03-31T09:29:56.973Z,19.80
2019-03-31T09:31:00.618Z,17.00
2019-03-31T09:32:03.007Z,19.80
2019-03-31T09:33:05.424Z,18.20
2019-03-31T09:34:07.576Z,20.00
2019-03-31T09:35:10.254Z,19.00
2019-03-31T09:36:16.525Z,18.80
2019-03-31T09:37:16.352Z,17.20
2019-03-31T09:38:18.489Z,20.80
2019-03-31T09:39:20.552Z,19.00
2019-03-31T09:40:23.311Z,21.00
2019-03-31T09:41:26.804Z,20.60
2019-03-31T09:42:29.084Z,13.80
2019-03-31T09:43:31.147Z,12.60
2019-03-31T09:44:33.228Z,16.00
2019-03-31T09:45:35.533Z,16.00
2019-03-31T09:46:38.004Z,13.00
2019-03-31T09:47:40.441Z,15.60
2019-03-31T09:48:42.426Z,13.20
2019-03-31T09:49:44.491Z,18.00
2019-03-31T09:50:46.901Z,15.20
2019-03-31T09:51:48.869Z,17.80
2019-03-31T09:52:51.086Z,15.00
2019-03-31T09:53:53.198Z,15.80
2019-03-31T09:54:56.861Z,14.00
2019-03-31T09:55:59.259Z,14.40
2019-03-31T09:57:01.513Z,11.60
2019-03-31T09:58:03.690Z,13.40
2019-03-31T09:59:06.012Z,15.00
2019-03-31T10:00:12.331Z,18.00
2019-03-31T10:01:14.637Z,12.40
2019-03-31T10:02:17.053Z,10.80
2019-03-31T10:03:21.235Z,14.20
2019-03-31T10:04:23.033Z,13.00
2019-03-31T10:05:25.305Z,13.00
2019-03-31T10:06:30.721Z,13.40
2019-03-31T10:07:33.389Z,12.40
2019-03-31T10:08:36.171Z,13.00
2019-03-31T10:09:39.998Z,13.60
2019-03-31T10:10:42.262Z,13.60
2019-03-31T10:11:44.586Z,13.00
2019-03-31T10:12:46.837Z,15.00
2019-03-31T10:13:48.867Z,15.40
2019-03-31T10:14:54.399Z,14.20
2019-03-31T10:15:56.246Z,14.80
2019-03-31T10:16:58.544Z,13.80
2019-03-31T10:18:01.260Z,13.80
2019-03-31T10:19:03.800Z,13.20
2019-03-31T10:20:07.028Z,14.00
2019-03-31T10:21:09.069Z,14.00
2019-03-31T10:22:11.489Z,16.00
2019-03-31T10:23:14.518Z,14.00
2019-03-31T10:24:16.741Z,15.00
2019-03-31T10:25:19.114Z,11.80
2019-03-31T10:26:31.809Z,13.40
2019-03-31T10:27:25.300Z,11.60
2019-03-31T10:28:27.550Z,12.80
2019-03-31T10:29:29.784Z,14.00
2019-03-31T10:30:37.490Z,12.60
2019-03-31T10:31:40.168Z,14.40
2019-03-31T10:32:42.726Z,13.00
2019-03-31T10:33:45.190Z,12.20
2019-03-31T10:34:47.328Z,12.00
2019-03-31T10:35:49.710Z,14.80
2019-03-31T10:36:51.803Z,11.40
2019-03-31T10:37:54.058Z,10.80
2019-03-31T10:38:56.555Z,13.00
2019-03-31T10:39:58.656Z,14.20
2019-03-31T10:41:00.858Z,13.80
2019-03-31T10:42:04.454Z,13.20
2019-03-31T10:43:07.009Z,13.20
2019-03-31T10:44:08.960Z,14.20
2019-03-31T10:45:12.091Z,11.80
2019-03-31T10:46:14.085Z,10.80
2019-03-31T10:47:16.176Z,10.20
2019-03-31T10:48:20.763Z,12.00
2019-03-31T10:49:22.351Z,12.60
2019-03-31T10:50:24.681Z,12.40
2019-03-31T10:51:26.381Z,11.80
2019-03-31T10:52:28.643Z,13.80
2019-03-31T10:53:30.956Z,12.00
2019-03-31T10:54:32.919Z,14.00
2019-03-31T10:55:35.394Z,13.40
2019-03-31T10:56:37.789Z,13.60
2019-03-31T10:57:41.168Z,13.20
2019-03-31T10:58:43.252Z,11.60
2019-03-31T10:59:45.641Z,12.00
2019-03-31T11:00:47.978Z,11.40
2019-03-31T11:01:50.860Z,12.80
2019-03-31T11:02:53.037Z,12.00
2019-03-31T11:03:55.392Z,13.60
2019-03-31T11:04:57.962Z,13.40
2019-03-31T11:06:00.120Z,13.20
2019-03-31T11:07:03.667Z,12.40
2019-03-31T11:08:07.132Z,10.80
2019-03-31T11:09:10.384Z,10.40
2019-03-31T11:10:13.512Z,13.00
2019-03-31T11:11:16.036Z,12.00
2019-03-31T11:12:18.079Z,13.80
2019-03-31T11:13:19.922Z,11.80
2019-03-31T11:14:22.260Z,14.00
2019-03-31T11:15:24.048Z,13.00
2019-03-31T11:16:26.534Z,12.60
2019-03-31T11:17:28.746Z,16.00
2019-03-31T11:18:31.790Z,12.20
2019-03-31T11:19:33.618Z,12.60
2019-03-31T11:20:35.933Z,16.20
2019-03-31T11:21:40.521Z,12.00
2019-03-31T11:22:44.145Z,13.00
2019-03-31T11:23:46.215Z,11.80
2019-03-31T11:24:48.937Z,12.40
2019-03-31T11:25:51.176Z,13.00
2019-03-31T11:26:53.817Z,14.80
2019-03-31T11:27:55.743Z,12.80
2019-03-31T11:28:58.054Z,13.40
2019-03-31T11:30:00.389Z,15.80
2019-03-31T11:31:02.774Z,14.60
2019-03-31T11:32:05.162Z,15.00
2019-03-31T11:33:07.764Z,14.00
2019-03-31T11:34:11.155Z,13.60
2019-03-31T11:35:13.305Z,13.80
2019-03-31T11:36:15.418Z,14.00
2019-03-31T11:37:17.665Z,14.60
2019-03-31T11:38:19.941Z,12.80
2019-03-31T11:39:22.295Z,10.80
2019-03-31T11:40:25.105Z,14.60
2019-03-31T11:41:27.355Z,12.00
2019-03-31T11:42:29.467Z,15.00
2019-03-31T11:43:31.227Z,16.20
2019-03-31T11:44:33.412Z,15.00
2019-03-31T11:45:35.228Z,13.00
2019-03-31T11:46:37.375Z,12.00
2019-03-31T11:47:41.277Z,12.00
2019-03-31T11:48:43.499Z,14.80
2019-03-31T11:49:46.003Z,11.20
2019-03-31T11:50:48.094Z,14.00
2019-03-31T11:51:49.838Z,14.60
2019-03-31T11:52:53.236Z,14.20
2019-03-31T11:53:55.426Z,12.20
2019-03-31T11:54:57.761Z,11.20
2019-03-31T11:56:00.197Z,14.00
2019-03-31T11:57:02.876Z,12.00
2019-03-31T11:58:06.190Z,10.20
2019-03-31T11:59:08.278Z,16.40
2019-03-31T12:00:21.712Z,11.00
2019-03-31T12:01:24.470Z,12.40
2019-03-31T12:02:27.822Z,13.20
2019-03-31T12:03:31.197Z,13.00
2019-03-31T12:04:33.568Z,12.80
2019-03-31T12:05:35.850Z,12.60
2019-03-31T12:06:37.845Z,11.60
2019-03-31T12:07:47.111Z,7.80
2019-03-31T12:08:46.958Z,10.20
2019-03-31T12:09:48.949Z,9.00
2019-03-31T12:10:51.099Z,6.20
2019-03-31T12:11:53.303Z,10.00
2019-03-31T12:12:57.267Z,13.00
2019-03-31T12:13:59.494Z,13.40
2019-03-31T12:15:03.319Z,9.00
2019-03-31T12:16:05.312Z,12.80
2019-03-31T12:17:08.544Z,8.40
2019-03-31T12:18:10.552Z,12.20
2019-03-31T12:19:12.923Z,11.00
2019-03-31T12:20:15.465Z,13.00
2019-03-31T12:21:17.438Z,12.00
2019-03-31T12:22:20.104Z,10.20
2019-03-31T12:23:22.235Z,13.00
2019-03-31T12:24:23.939Z,13.40
2019-03-31T12:25:27.464Z,13.20
2019-03-31T12:26:29.626Z,12.40
2019-03-31T12:27:31.402Z,13.00
2019-03-31T12:28:33.451Z,13.00
2019-03-31T12:29:35.697Z,13.00
2019-03-31T12:30:38.203Z,14.60
2019-03-31T12:31:40.366Z,13.00
2019-03-31T12:32:42.562Z,12.60
2019-03-31T12:33:44.851Z,12.00
2019-03-31T12:34:47.091Z,14.00
2019-03-31T12:35:49.542Z,13.00
2019-03-31T12:36:51.236Z,13.60
2019-03-31T12:37:53.684Z,13.00
2019-03-31T12:38:56.921Z,13.00
2019-03-31T12:39:59.287Z,16.20
2019-03-31T12:41:02.828Z,14.00
2019-03-31T12:42:04.940Z,13.40
2019-03-31T12:43:06.802Z,10.60
2019-03-31T12:44:08.998Z,7.80
2019-03-31T12:45:11.100Z,5.60
2019-03-31T12:46:13.324Z,10.60
2019-03-31T12:47:15.826Z,8.00
2019-03-31T12:48:18.102Z,12.00
2019-03-31T12:49:20.276Z,13.00
2019-03-31T12:50:22.307Z,11.00
2019-03-31T12:51:27.557Z,13.80
2019-03-31T12:52:29.610Z,11.00
2019-03-31T12:53:31.848Z,13.20
2019-03-31T12:54:34.109Z,13.00
2019-03-31T12:55:36.676Z,11.40
2019-03-31T12:56:38.812Z,12.80
2019-03-31T12:57:40.716Z,12.20
2019-03-31T12:58:44.686Z,10.80
2019-03-31T12:59:47.011Z,12.00
2019-03-31T13:00:50.517Z,13.80
2019-03-31T13:01:52.700Z,12.40
2019-03-31T13:02:55.353Z,12.80
2019-03-31T13:03:57.422Z,12.60
2019-03-31T13:04:59.567Z,10.60
2019-03-31T13:06:01.806Z,12.20
2019-03-31T13:07:03.618Z,13.00
2019-03-31T13:08:05.889Z,10.20
2019-03-31T13:09:08.809Z,9.20
2019-03-31T13:10:11.315Z,9.20
2019-03-31T13:11:13.695Z,11.80
2019-03-31T13:12:15.932Z,10.60
2019-03-31T13:13:18.827Z,11.80
2019-03-31T13:14:22.025Z,10.20
2019-03-31T13:15:23.921Z,7.40
2019-03-31T13:16:26.072Z,11.00
2019-03-31T13:17:28.280Z,13.40
2019-03-31T13:18:31.005Z,12.00
2019-03-31T13:19:33.295Z,11.20
2019-03-31T13:20:35.951Z,11.80
2019-03-31T13:21:39.223Z,11.40
2019-03-31T13:22:41.683Z,13.80
2019-03-31T13:23:43.941Z,12.20
2019-03-31T13:24:46.381Z,11.20
2019-03-31T13:25:48.493Z,11.60
2019-03-31T13:26:50.665Z,11.20
2019-03-31T13:27:52.573Z,12.00